createdAt,value
2022-08-09T00:01:43.097Z,36419.81
2022-08-09T00:04:34.655Z,36437.72
2022-08-09T00:07:07.715Z,36419.81
2022-08-09T00:09:46.279Z,36423.78
2022-08-09T00:12:22.837Z,36395.91
2022-08-09T00:14:56.684Z,36405.84
2022-08-09T00:18:05.381Z,36443.72
2022-08-09T00:20:12.941Z,36429.75
2022-08-09T00:22:42.400Z,36443.72
2022-08-09T00:25:12.804Z,36435.75
2022-08-09T00:27:43.048Z,36437.72
2022-08-09T00:30:24.928Z,36437.72
2022-08-09T00:32:53.211Z,36433.75
2022-08-09T00:35:24.079Z,36443.72
2022-08-09T00:37:55.984Z,36429.75
2022-08-09T00:40:23.230Z,36433.75
2022-08-09T00:44:15.001Z,36439.72
2022-08-09T00:45:50.455Z,36465.63
2022-08-09T00:48:22.026Z,36457.66
2022-08-09T00:50:52.307Z,36457.66
2022-08-09T00:53:24.100Z,36423.78
2022-08-09T00:56:04.969Z,36469.59
2022-08-09T00:58:36.707Z,36445.69
2022-08-09T01:01:16.151Z,36433.75
2022-08-09T01:04:08.690Z,36481.56
2022-08-09T01:06:54.843Z,36473.59
2022-08-09T01:09:47.514Z,36491.53
2022-08-09T01:12:35.238Z,36439.72
2022-08-09T01:15:16.652Z,36461.63
2022-08-09T01:17:52.003Z,36461.63
2022-08-09T01:20:55.146Z,36477.56
2022-08-09T01:24:02.902Z,36477.56
2022-08-09T01:26:21.297Z,36501.47
2022-08-09T01:28:53.955Z,36525.41
2022-08-09T01:32:31.187Z,36463.63
2022-08-09T01:34:20.862Z,36501.47
2022-08-09T01:36:52.981Z,36509.47
2022-08-09T01:39:23.207Z,36503.47
2022-08-09T01:41:55.710Z,36513.44
2022-08-09T01:44:33.603Z,36493.53
2022-08-09T01:47:04.252Z,36531.38
2022-08-09T01:49:39.262Z,36485.53
2022-08-09T01:52:15.129Z,36525.41
2022-08-09T01:54:53.973Z,36517.44
2022-08-09T01:57:29.417Z,36519.41
2022-08-09T02:00:34.312Z,36547.31
2022-08-09T02:03:05.418Z,36543.31
2022-08-09T02:05:53.694Z,36549.31
2022-08-09T02:08:38.947Z,36539.34
2022-08-09T02:11:17.335Z,36595.13
2022-08-09T02:13:55.360Z,36553.28
2022-08-09T02:16:53.008Z,36541.34
2022-08-09T02:19:25.042Z,36499.50
2022-08-09T02:22:36.130Z,36549.31
2022-08-09T02:25:10.127Z,36581.19
2022-08-09T02:27:57.700Z,36587.16
2022-08-09T02:30:33.431Z,36559.25
2022-08-09T02:33:02.669Z,36577.19
2022-08-09T02:36:01.605Z,36561.25
2022-08-09T02:38:32.373Z,36581.19
2022-08-09T02:41:08.630Z,36581.19
2022-08-09T02:43:42.416Z,36591.13
2022-08-09T02:46:27.550Z,36587.16
2022-08-09T02:48:59.129Z,36557.28
2022-08-09T02:51:37.165Z,36593.13
2022-08-09T02:54:14.012Z,36577.19
2022-08-09T02:56:51.317Z,36541.34
2022-08-09T02:59:26.464Z,36549.31
2022-08-09T03:02:11.981Z,36529.38
2022-08-09T03:04:41.859Z,36505.47
2022-08-09T03:07:14.472Z,36519.41
2022-08-09T03:09:56.573Z,36471.59
2022-08-09T03:12:26.047Z,36463.63
2022-08-09T03:14:55.110Z,36451.69
2022-08-09T03:17:27.160Z,36441.72
2022-08-09T03:20:05.072Z,36431.75
2022-08-09T03:22:41.962Z,36439.72
2022-08-09T03:25:21.961Z,36368.00
2022-08-09T03:28:02.871Z,36373.97
2022-08-09T03:30:34.214Z,36381.94
2022-08-09T03:33:17.149Z,36391.91
2022-08-09T03:36:13.757Z,36348.09
2022-08-09T03:38:42.606Z,36362.03
2022-08-09T03:41:16.555Z,36354.06
2022-08-09T03:44:03.306Z,36419.81
2022-08-09T03:46:34.582Z,36391.91
2022-08-09T03:49:07.924Z,36354.06
2022-08-09T03:51:58.554Z,36399.88
2022-08-09T03:54:39.608Z,36413.81
2022-08-09T03:57:20.210Z,36381.94
2022-08-09T03:59:54.404Z,36358.03
2022-08-09T04:02:28.479Z,36366.00
2022-08-09T04:04:59.076Z,36391.91
2022-08-09T04:07:33.816Z,36373.97
2022-08-09T04:10:21.016Z,36393.91
2022-08-09T04:13:00.721Z,36389.91
2022-08-09T04:15:51.973Z,36381.94
2022-08-09T04:18:21.885Z,36383.94
2022-08-09T04:20:51.440Z,36409.84
2022-08-09T04:23:24.346Z,36429.75
2022-08-09T04:25:54.931Z,36421.78
2022-08-09T04:28:33.569Z,36433.75
2022-08-09T04:31:09.841Z,36427.78
2022-08-09T04:33:52.689Z,36403.88
2022-08-09T04:36:27.947Z,36431.75
2022-08-09T04:39:00.631Z,36409.84
2022-08-09T04:41:33.801Z,36415.81
2022-08-09T04:44:12.400Z,36397.88
2022-08-09T04:46:58.360Z,36370.00
2022-08-09T04:49:52.539Z,36521.41
2022-08-09T04:52:27.828Z,36531.38
2022-08-09T04:55:01.806Z,36531.38
2022-08-09T04:57:59.411Z,36581.19
2022-08-09T05:00:20.156Z,36605.09
2022-08-09T05:02:51.935Z,36613.06
2022-08-09T05:05:32.074Z,36630.97
2022-08-09T05:08:09.102Z,36644.94
2022-08-09T05:10:36.626Z,36619.03
2022-08-09T05:13:04.403Z,36617.03
2022-08-09T05:15:42.704Z,36634.97
2022-08-09T05:18:42.765Z,36629.00
2022-08-09T05:21:03.090Z,36636.97
2022-08-09T05:23:55.319Z,36632.97
2022-08-09T05:26:33.868Z,36640.94
2022-08-09T05:29:04.904Z,36630.97
2022-08-09T05:31:44.455Z,36648.91
2022-08-09T05:34:18.068Z,36686.78
2022-08-09T05:36:59.066Z,36656.88
2022-08-09T05:39:43.678Z,36680.78
2022-08-09T05:42:20.864Z,36684.78
2022-08-09T05:44:59.110Z,36672.81
2022-08-09T05:47:36.604Z,36646.94
2022-08-09T05:50:44.307Z,36648.91
2022-08-09T05:53:33.387Z,36668.84
2022-08-09T05:56:09.916Z,36632.97
2022-08-09T05:58:44.237Z,36630.97
2022-08-09T06:01:15.899Z,36611.06
2022-08-09T06:03:58.076Z,36609.06
2022-08-09T06:06:27.587Z,36577.19
2022-08-09T06:09:03.024Z,36487.53
2022-08-09T06:11:41.177Z,36501.47
2022-08-09T06:14:24.881Z,36511.44
2022-08-09T06:16:52.728Z,36481.56
2022-08-09T06:19:22.313Z,36507.47
2022-08-09T06:21:58.711Z,36453.66
2022-08-09T06:24:29.052Z,36401.88
2022-08-09T06:26:56.635Z,36379.97
2022-08-09T06:29:24.851Z,36399.88
2022-08-09T06:32:08.918Z,36397.88
2022-08-09T06:34:39.055Z,36391.91
2022-08-09T06:37:19.130Z,36433.75
2022-08-09T06:40:00.099Z,36531.38
2022-08-09T06:42:45.161Z,36696.72
2022-08-09T06:46:06.431Z,37170.94
2022-08-09T06:48:30.481Z,37722.97
2022-08-09T06:50:59.751Z,37352.28
2022-08-09T06:53:38.063Z,37290.50
2022-08-09T06:56:07.940Z,37543.59
2022-08-09T07:00:49.453Z,37314.44
2022-08-09T07:01:35.691Z,37290.50
2022-08-09T07:04:12.215Z,37453.94
2022-08-09T07:06:53.407Z,37563.53
2022-08-09T07:09:54.853Z,37587.44
2022-08-09T07:12:22.109Z,37501.75
2022-08-09T07:16:36.370Z,37707.03
2022-08-09T07:18:01.918Z,37689.09
2022-08-09T07:20:32.421Z,37447.94
2022-08-09T07:23:00.050Z,37651.22
2022-08-09T07:25:27.364Z,39136.28
2022-08-09T07:27:56.774Z,39088.44
2022-08-09T07:30:25.254Z,40628.00
2022-08-09T07:32:54.746Z,40853.41
2022-08-09T07:35:53.139Z,41807.09
2022-08-09T07:38:31.071Z,43046.47
2022-08-09T07:41:12.915Z,43894.94
2022-08-09T07:46:29.377Z,43904.94
2022-08-09T07:49:03.677Z,43677.31
2022-08-09T07:52:05.814Z,44100.59
2022-08-09T07:54:31.169Z,44747.63
2022-08-09T07:56:59.865Z,45278.91
2022-08-09T07:59:45.962Z,44677.72
2022-08-09T08:02:21.275Z,44545.91
2022-08-09T08:04:49.408Z,44190.47
2022-08-09T08:08:42.837Z,43407.78
2022-08-09T08:10:15.246Z,43469.69
2022-08-09T08:12:56.567Z,43230.13
2022-08-09T08:15:26.019Z,42623.31
2022-08-09T08:17:58.225Z,42066.50
2022-08-09T08:20:32.589Z,41938.78
2022-08-09T08:23:16.830Z,42435.69
2022-08-09T08:25:50.399Z,42563.44
2022-08-09T08:28:32.146Z,42667.22
2022-08-09T08:31:10.379Z,43577.50
2022-08-09T08:33:53.699Z,44190.47
2022-08-09T08:36:30.724Z,43633.38
2022-08-09T08:38:59.820Z,42777.00
2022-08-09T08:41:50.441Z,42010.63
2022-08-09T08:44:23.150Z,41593.59
2022-08-09T08:47:05.150Z,41437.97
2022-08-09T08:49:47.901Z,41457.91
2022-08-09T08:55:07.268Z,41136.69
2022-08-09T08:57:35.934Z,41807.09
2022-08-09T09:00:20.918Z,41575.63
2022-08-09T09:03:08.146Z,41603.56
2022-08-09T09:06:00.169Z,41709.31
2022-08-09T09:08:30.320Z,42018.59
2022-08-09T09:11:03.988Z,42108.41
2022-08-09T09:13:54.897Z,41924.81
2022-08-09T09:16:30.837Z,41577.63
2022-08-09T09:19:41.495Z,41368.13
2022-08-09T09:22:05.120Z,41481.84
2022-08-09T09:26:02.013Z,41236.44
2022-08-09T09:28:03.897Z,41334.22
2022-08-09T09:30:41.360Z,41467.88
2022-08-09T09:33:15.449Z,41675.41
2022-08-09T09:36:11.740Z,41390.06
2022-08-09T09:38:56.686Z,41683.38
2022-08-09T09:41:26.179Z,41641.47
2022-08-09T09:44:11.469Z,41735.25
2022-08-09T09:46:51.472Z,41573.63
2022-08-09T09:49:56.437Z,41467.88
2022-08-09T09:52:33.368Z,41607.56
2022-08-09T09:55:16.049Z,41346.19
2022-08-09T09:58:17.106Z,40939.19
2022-08-09T10:00:54.298Z,41222.47
2022-08-09T10:03:44.834Z,41142.69
2022-08-09T10:06:46.743Z,40891.31
2022-08-09T10:09:22.357Z,40815.50
2022-08-09T10:12:11.389Z,40643.97
2022-08-09T10:14:48.846Z,41557.66
2022-08-09T10:17:51.194Z,40971.13
2022-08-09T10:20:26.890Z,40821.50
2022-08-09T10:23:17.461Z,40364.72
2022-08-09T10:26:07.839Z,40530.28
2022-08-09T10:28:40.787Z,39989.75
2022-08-09T10:34:10.918Z,38940.91
2022-08-09T10:36:47.736Z,39050.56
2022-08-09T10:39:19.616Z,39074.47
2022-08-09T10:41:48.347Z,38916.97
2022-08-09T10:44:23.148Z,39299.78
2022-08-09T10:48:16.214Z,39028.63
2022-08-09T10:51:04.254Z,38267.09
2022-08-09T10:54:04.644Z,38412.59
2022-08-09T10:56:40.132Z,38257.13
2022-08-09T10:59:31.261Z,37724.97
2022-08-09T11:03:15.745Z,37687.09
2022-08-09T11:05:14.252Z,37605.38
2022-08-09T11:07:58.293Z,38089.69
2022-08-09T11:10:54.464Z,37595.41
2022-08-09T11:13:49.891Z,37549.59
2022-08-09T11:16:37.334Z,37174.94
2022-08-09T11:19:07.950Z,37170.94
2022-08-09T11:22:05.010Z,37892.38
2022-08-09T11:24:56.403Z,37505.75
2022-08-09T11:28:02.873Z,37451.94
2022-08-09T11:30:33.810Z,37445.94
2022-08-09T11:33:05.718Z,37356.28
2022-08-09T11:35:49.502Z,37236.72
2022-08-09T11:38:19.292Z,37537.63
2022-08-09T11:40:54.884Z,37318.41
2022-08-09T11:43:32.531Z,37475.84
2022-08-09T11:46:01.976Z,37222.75
2022-08-09T11:48:32.297Z,36880.03
2022-08-09T11:53:00.750Z,36929.84
2022-08-09T11:54:14.041Z,36939.81
2022-08-09T11:56:48.064Z,36846.16
2022-08-09T11:59:33.002Z,37035.47
2022-08-09T12:02:17.661Z,36947.78
2022-08-09T12:04:58.134Z,36778.41
2022-08-09T12:07:41.054Z,36718.66
2022-08-09T12:10:38.304Z,36517.44
2022-08-09T12:14:07.017Z,36447.69
2022-08-09T12:16:02.042Z,36445.69
2022-08-09T12:18:33.901Z,36391.91
2022-08-09T12:21:11.034Z,36373.97
2022-08-09T12:24:06.737Z,36629.00
2022-08-09T12:26:53.031Z,36623.00
2022-08-09T12:29:58.592Z,36471.59
2022-08-09T12:32:31.964Z,36479.56
2022-08-09T12:35:04.684Z,36350.06
2022-08-09T12:37:44.240Z,36296.28
2022-08-09T12:40:23.277Z,36328.16
2022-08-09T12:42:53.519Z,36320.19
2022-08-09T12:45:33.387Z,36373.97
2022-08-09T12:48:19.850Z,36537.34
2022-08-09T12:50:52.171Z,36680.78
2022-08-09T12:53:41.219Z,36880.03
2022-08-09T12:56:39.258Z,37174.94
2022-08-09T12:59:19.931Z,37746.88
2022-08-09T13:02:05.108Z,38229.22
2022-08-09T13:04:39.949Z,38809.31
2022-08-09T13:07:19.714Z,39716.53
2022-08-09T13:10:04.631Z,41056.91
2022-08-09T13:13:10.258Z,43335.94
2022-08-09T13:15:50.088Z,45003.25
2022-08-09T13:18:18.656Z,45542.59
2022-08-09T13:20:50.282Z,46165.91
2022-08-09T13:24:16.270Z,46093.97
2022-08-09T13:26:37.616Z,44130.56
2022-08-09T13:29:08.730Z,44476.03
2022-08-09T13:32:15.870Z,44490.00
2022-08-09T13:34:42.051Z,45390.75
2022-08-09T13:37:09.331Z,45588.53
2022-08-09T13:41:55.513Z,45744.34
2022-08-09T13:42:29.052Z,46337.72
2022-08-09T13:44:58.607Z,46879.25
2022-08-09T13:47:49.548Z,47688.72
2022-08-09T13:50:29.970Z,46513.56
2022-08-09T13:53:01.935Z,44402.13
2022-08-09T13:55:31.048Z,42298.00
2022-08-09T13:58:11.719Z,41048.91
2022-08-09T14:00:50.427Z,39626.81
2022-08-09T14:04:03.225Z,39588.91
2022-08-09T14:06:26.637Z,40795.56
2022-08-09T14:08:57.319Z,40787.59
2022-08-09T14:11:27.974Z,39431.38
2022-08-09T14:14:22.623Z,38544.19
2022-08-09T14:16:44.961Z,38071.75
2022-08-09T14:19:14.771Z,37828.59
2022-08-09T14:21:48.227Z,37665.16
2022-08-09T14:24:32.141Z,37270.59
2022-08-09T14:27:01.333Z,37170.94
2022-08-09T14:30:35.034Z,37003.56
2022-08-09T14:32:19.998Z,36780.41
2022-08-09T14:34:57.226Z,36535.34
2022-08-09T14:37:28.584Z,36505.47
2022-08-09T14:40:09.206Z,36615.03
2022-08-09T14:42:41.194Z,37077.31
2022-08-09T14:46:46.445Z,37097.22
2022-08-09T14:48:04.910Z,36903.94
2022-08-09T14:50:34.547Z,36736.59
2022-08-09T14:53:06.378Z,36565.25
2022-08-09T14:55:47.821Z,36537.34
2022-08-09T14:58:22.490Z,36479.56
2022-08-09T15:00:53.290Z,36316.22
2022-08-09T15:03:25.769Z,36318.19
2022-08-09T15:05:56.875Z,36300.28
2022-08-09T15:08:30.492Z,36242.50
2022-08-09T15:11:06.970Z,36154.84
2022-08-09T15:13:56.388Z,36119.00
2022-08-09T15:16:29.772Z,36085.13
2022-08-09T15:18:59.677Z,36250.47
2022-08-09T15:21:56.132Z,36397.88
2022-08-09T15:24:23.306Z,36485.53
2022-08-09T15:26:57.734Z,37043.44
2022-08-09T15:30:58.280Z,37463.88
2022-08-09T15:32:28.552Z,37790.72
2022-08-09T15:35:18.519Z,38197.34
2022-08-09T15:37:56.758Z,38911.00
2022-08-09T15:40:43.879Z,39447.34
2022-08-09T15:43:13.337Z,39756.44
2022-08-09T15:46:07.528Z,39858.13
2022-08-09T15:48:32.136Z,40265.00
2022-08-09T15:51:00.478Z,40334.78
2022-08-09T15:54:05.276Z,40101.44
2022-08-09T15:56:29.147Z,39686.63
2022-08-09T15:58:58.859Z,39570.97
2022-08-09T16:01:31.558Z,39439.38
2022-08-09T16:04:04.979Z,38869.13
2022-08-09T16:06:39.508Z,38611.97
2022-08-09T16:09:15.961Z,38245.16
2022-08-09T16:11:49.335Z,38041.84
2022-08-09T16:14:24.219Z,37806.66
2022-08-09T16:16:59.761Z,37862.47
2022-08-09T16:19:36.599Z,37609.38
2022-08-09T16:22:16.418Z,37655.22
2022-08-09T16:24:47.105Z,39351.63
2022-08-09T16:27:24.407Z,39172.19
2022-08-09T16:30:15.293Z,42982.59
2022-08-09T16:33:15.693Z,43254.06
2022-08-09T16:35:55.693Z,42814.94
2022-08-09T16:38:34.532Z,42958.63
2022-08-09T16:41:04.711Z,42902.75
2022-08-09T16:43:40.479Z,42910.72
2022-08-09T16:46:08.157Z,42968.63
2022-08-09T16:48:52.097Z,43030.50
2022-08-09T16:51:38.651Z,43182.22
2022-08-09T16:54:25.976Z,42996.56
2022-08-09T16:57:08.245Z,43228.13
2022-08-09T16:59:50.384Z,43681.31
2022-08-09T17:02:30.332Z,44655.75
2022-08-09T17:05:03.635Z,47199.03
2022-08-09T17:08:43.948Z,48520.38
2022-08-09T17:10:22.216Z,48482.38
2022-08-09T17:12:52.655Z,47288.97
2022-08-09T17:15:59.309Z,44955.31
2022-08-09T17:18:10.683Z,42727.09
2022-08-09T17:20:46.678Z,41050.91
2022-08-09T17:24:20.737Z,39838.19
2022-08-09T17:26:29.410Z,39044.56
2022-08-09T17:29:11.497Z,38045.84
2022-08-09T17:31:54.658Z,37814.66
2022-08-09T17:35:07.406Z,38079.72
2022-08-09T17:37:19.758Z,37101.22
2022-08-09T17:39:53.595Z,36680.78
2022-08-09T17:42:41.119Z,36599.09
2022-08-09T17:45:16.144Z,36485.53
2022-08-09T17:48:02.776Z,36465.63
2022-08-09T17:50:37.279Z,36379.97
2022-08-09T17:53:21.779Z,36344.09
2022-08-09T17:55:57.594Z,36415.81
2022-08-09T17:58:30.942Z,36372.00
2022-08-09T18:00:59.915Z,36228.56
2022-08-09T18:03:30.438Z,36212.63
2022-08-09T18:06:00.702Z,36061.22
2022-08-09T18:08:28.392Z,36003.47
2022-08-09T18:11:02.029Z,35991.50
2022-08-09T18:13:39.732Z,35911.81
2022-08-09T18:16:28.918Z,35885.94
2022-08-09T18:19:04.069Z,35953.66
2022-08-09T18:21:41.312Z,36007.44
2022-08-09T18:24:14.427Z,35995.50
2022-08-09T18:26:46.972Z,36035.31
2022-08-09T18:30:38.913Z,36025.38
2022-08-09T18:32:04.975Z,35963.63
2022-08-09T18:34:35.427Z,35961.63
2022-08-09T18:37:04.543Z,35949.69
2022-08-09T18:39:45.961Z,35945.69
2022-08-09T18:42:18.695Z,35957.66
2022-08-09T18:44:48.561Z,35959.63
2022-08-09T18:47:19.526Z,35961.63
2022-08-09T18:49:52.154Z,35959.63
2022-08-09T18:52:28.380Z,35891.91
2022-08-09T18:55:13.508Z,35931.75
2022-08-09T18:57:44.558Z,35907.84
2022-08-09T19:00:16.814Z,35911.81
2022-08-09T19:02:51.006Z,35925.78
2022-08-09T19:05:41.329Z,35917.81
2022-08-09T19:08:10.242Z,35919.78
2022-08-09T19:10:39.939Z,35897.88
2022-08-09T19:13:22.971Z,35873.97
2022-08-09T19:15:58.870Z,35889.91
2022-08-09T19:18:34.164Z,35887.94
2022-08-09T19:21:10.452Z,35907.84
2022-08-09T19:24:38.274Z,35921.78
2022-08-09T19:26:31.242Z,35903.84
2022-08-09T19:29:03.253Z,35885.94
2022-08-09T19:31:45.532Z,35860.03
2022-08-09T19:34:18.342Z,35907.84
2022-08-09T19:36:58.252Z,35877.97
2022-08-09T19:39:43.095Z,35909.84
2022-08-09T19:42:19.399Z,35933.75
2022-08-09T19:44:50.638Z,35907.84
2022-08-09T19:47:27.071Z,35899.88
2022-08-09T19:50:09.958Z,35927.75
2022-08-09T19:52:49.431Z,35881.94
2022-08-09T19:55:30.757Z,35907.84
2022-08-09T19:58:15.923Z,35905.84
2022-08-09T20:00:45.603Z,35987.53
2022-08-09T20:04:26.236Z,35957.66
2022-08-09T20:06:03.417Z,35959.63
2022-08-09T20:08:35.277Z,35963.63
2022-08-09T20:11:06.081Z,35957.66
2022-08-09T20:13:36.797Z,35955.66
2022-08-09T20:16:38.149Z,35949.69
2022-08-09T20:19:42.021Z,35937.72
2022-08-09T20:21:55.920Z,35971.59
2022-08-09T20:24:29.467Z,36009.44
2022-08-09T20:27:07.986Z,35983.53
2022-08-09T20:29:39.738Z,36003.47
2022-08-09T20:32:29.291Z,35987.53
2022-08-09T20:34:57.073Z,36003.47
2022-08-09T20:37:24.738Z,36015.41
2022-08-09T20:40:17.717Z,36047.28
2022-08-09T20:42:39.299Z,36015.41
2022-08-09T20:48:03.166Z,36055.25
2022-08-09T20:50:47.380Z,36049.28
2022-08-09T20:53:34.948Z,36033.34
2022-08-09T20:56:04.003Z,36023.38
2022-08-09T20:58:33.291Z,36085.13
2022-08-09T21:01:32.422Z,36047.28
2022-08-09T21:04:07.922Z,36105.06
2022-08-09T21:06:44.124Z,36107.03
2022-08-09T21:09:13.798Z,36083.13
2022-08-09T21:14:31.124Z,36097.09
2022-08-09T21:17:01.971Z,36051.25
2022-08-09T21:20:18.682Z,36075.16
2022-08-09T21:22:46.942Z,36067.19
2022-08-09T21:25:37.688Z,36061.22
2022-08-09T21:28:07.277Z,36132.94
2022-08-09T21:30:40.860Z,36130.94
2022-08-09T21:33:09.039Z,36132.94
2022-08-09T21:35:40.913Z,36111.03
2022-08-09T21:38:21.043Z,36107.03
2022-08-09T21:40:59.339Z,36103.06
2022-08-09T21:43:56.130Z,36124.97
2022-08-09T21:46:16.802Z,36117.00
2022-08-09T21:48:49.194Z,36115.00
2022-08-09T21:51:24.434Z,36113.03
2022-08-09T21:54:03.765Z,36124.97
2022-08-09T21:56:42.999Z,36113.03
2022-08-09T21:59:12.059Z,36095.09
2022-08-09T22:02:00.422Z,36130.94
2022-08-09T22:04:56.804Z,36119.00
2022-08-09T22:07:35.435Z,36103.06
2022-08-09T22:10:09.173Z,36138.91
2022-08-09T22:12:38.016Z,36130.94
2022-08-09T22:15:15.717Z,36166.81
2022-08-09T22:17:46.270Z,36162.81
2022-08-09T22:20:17.063Z,36164.81
2022-08-09T22:22:51.388Z,36154.84
2022-08-09T22:26:08.309Z,36168.78
2022-08-09T22:28:06.671Z,36142.91
2022-08-09T22:30:34.777Z,36136.91
2022-08-09T22:33:09.391Z,36140.91
2022-08-09T22:36:01.343Z,36146.88
2022-08-09T22:38:27.574Z,36144.88
2022-08-09T22:40:58.203Z,36192.69
2022-08-09T22:44:01.414Z,36208.63
2022-08-09T22:48:16.724Z,36162.81
2022-08-09T22:49:09.632Z,36166.81
2022-08-09T22:51:38.583Z,36200.66
2022-08-09T22:54:12.781Z,36178.75
2022-08-09T22:56:42.199Z,36218.59
2022-08-09T22:59:57.430Z,36196.69
2022-08-09T23:02:05.493Z,36190.72
2022-08-09T23:04:38.346Z,36198.69
2022-08-09T23:08:22.592Z,36242.50
2022-08-09T23:10:12.671Z,36198.69
2022-08-09T23:12:39.854Z,36210.63
2022-08-09T23:15:08.041Z,36202.66
2022-08-09T23:17:35.959Z,36184.72
2022-08-09T23:20:08.054Z,36166.81
2022-08-09T23:22:35.853Z,36204.66
2022-08-09T23:25:05.458Z,36198.69
2022-08-09T23:27:33.099Z,36214.63
2022-08-09T23:30:00.528Z,36206.66
2022-08-09T23:32:27.780Z,36202.66
2022-08-09T23:34:54.917Z,36194.69
2022-08-09T23:37:22.866Z,36216.59
2022-08-09T23:39:57.577Z,36212.63
2022-08-09T23:42:26.837Z,36214.63
2022-08-09T23:44:56.724Z,36238.53
2022-08-09T23:47:24.991Z,36232.53
2022-08-09T23:49:52.413Z,36258.44
2022-08-09T23:52:19.654Z,36266.41
2022-08-09T23:54:54.088Z,36258.44
2022-08-09T23:57:22.051Z,36280.34
